WetterOnline ( https://www.wetteronline.de )

Wetter aktuell Alp Spitz

Aktuelles Wetter: Kempten (705m)

6-stündlich | Neueste Meldungen
Ortszeit Temperatur Wetter
So, 03.03. 1:00 1.3° C bedeckt
Sa, 02.03. 19:00 9.3° C bewölkt
Sa, 02.03. 13:00 12.2° C leicht bewölkt
Sa, 02.03. 7:00 3.3° C Nebel
Sa, 02.03. 1:00 3.0° C Nebel
Fr, 01.03. 19:00 4.8° C leichter Regen
Fr, 01.03. 13:00 4.5° C leichter Regen
Fr, 01.03. 7:00 3.9° C leicht bewölkt
Ortszeit Temperatur Wetter
So, 03.03. 3:00 0.7° C wolkig
So, 03.03. 2:40 1.4° C bedeckt
So, 03.03. 2:30 1.4° C bewölkt
So, 03.03. 2:20 1.4° C bewölkt
So, 03.03. 2:10 1.3° C bedeckt
So, 03.03. 2:00 1.1° C bedeckt
So, 03.03. 1:50 1.1° C bedeckt
So, 03.03. 1:30 1.1° C wolkig
So, 03.03. 1:00 1.3° C bedeckt
So, 03.03. 0:30 2.4° C bedeckt
So, 03.03. 0:00 2.8° C bewölkt
Ortszeit Relative Feuchte Sichtweite
So, 03.03. 1:00 92% 26 km
Sa, 02.03. 19:00 76% 30 km
Sa, 02.03. 13:00 57% >70 km
Sa, 02.03. 7:00 95% 14 km
Sa, 02.03. 1:00 98% 0.9 km
Fr, 01.03. 19:00 94% 16 km
Fr, 01.03. 13:00 86% 27 km
Fr, 01.03. 7:00 92% 7 km
Ortszeit Relative Feuchte Sichtweite
So, 03.03. 3:00 90% 55 km
So, 03.03. 2:40 90% -
So, 03.03. 2:30 89% 65 km
So, 03.03. 2:20 89% -
So, 03.03. 2:10 90% -
So, 03.03. 2:00 90% 50 km
So, 03.03. 1:50 90% -
So, 03.03. 1:30 91% 40 km
So, 03.03. 1:00 92% 26 km
So, 03.03. 0:30 91% 35 km
So, 03.03. 0:00 91% 35 km
Ortszeit Niederschlagsmenge Niederschlagsart
So, 03.03. 1:00 0.0 l/m2 in 6 Std. -
Sa, 02.03. 19:00 0.0 l/m2 in 12 Std. -
Sa, 02.03. 13:00 0.0 l/m2 in 6 Std. -
Sa, 02.03. 7:00 0.2 l/m2 in 12 Std. -
Sa, 02.03. 1:00 0.2 l/m2 in 6 Std. Regen
Fr, 01.03. 19:00 2 l/m2 in 12 Std. Regen
Fr, 01.03. 13:00 2 l/m2 in 6 Std. Regen
Fr, 01.03. 7:00 0.0 l/m2 in 12 Std. -
Ortszeit Niederschlagsmenge Niederschlagsart
So, 03.03. 3:00 0.0 l/m2 in 1 Std. -
So, 03.03. 2:40 keine Meldung -
So, 03.03. 2:30 0.0 l/m2 in 30 Min -
So, 03.03. 2:20 keine Meldung -
So, 03.03. 2:10 keine Meldung -
So, 03.03. 2:00 0.0 l/m2 in 1 Std. -
So, 03.03. 1:50 keine Meldung -
So, 03.03. 1:30 0.0 l/m2 in 30 Min -
So, 03.03. 1:00 0.0 l/m2 in 1 Std. -
So, 03.03. 0:30 0.0 l/m2 in 30 Min -
So, 03.03. 0:00 0.0 l/m2 in 1 Std. -
Ortszeit Stärke Spitze Richtung
km/h Bft. km/h Grad Sektor
So, 03.03. 1:00 6 1 13 120° SO
Sa, 02.03. 19:00 2 1 22 310° NW
Sa, 02.03. 13:00 9 2 15 120° SO
Sa, 02.03. 7:00 7 2 14 140° SO
Sa, 02.03. 1:00 4 1 7 100° O
Fr, 01.03. 19:00 2 1 15 80° O
Fr, 01.03. 13:00 7 2 22 240° SW
Fr, 01.03. 7:00 4 1 14 200° S
Ortszeit Stärke Spitze Richtung
km/h Bft. km/h Grad Sektor
So, 03.03. 3:00 4 1 11 130° SO
So, 03.03. 2:40 2 1 - 150° SO
So, 03.03. 2:30 2 1 9 150° SO
So, 03.03. 2:20 2 1 - 150° SO
So, 03.03. 2:10 7 2 - 110° O
So, 03.03. 2:00 7 2 11 110° O
So, 03.03. 1:50 7 2 - 110° O
So, 03.03. 1:30 7 2 11 130° SO
So, 03.03. 1:00 6 1 11 120° SO
So, 03.03. 0:30 7 2 11 120° SO
So, 03.03. 0:00 9 2 13 110° O
Ortszeit Untergrenze Bedeckung Gattung
total tief tief mittel hoch
So, 03.03. 1:00 5700 m 8/8 8/8 - - -
Sa, 02.03. 19:00 3000 m 8/8 5/8 - - -
Sa, 02.03. 13:00 3000 m 2/8 2/8 - - -
Sa, 02.03. 7:00 3300 m 8/8 8/8 - - -
Sa, 02.03. 1:00 <30 m 7/8 0/8 - - -
Fr, 01.03. 19:00 240 m 7/8 7/8 - - -
Fr, 01.03. 13:00 720 m 8/8 8/8 - - -
Fr, 01.03. 7:00 480 m 3/8 3/8 - - -
Ortszeit Bedeckungsgrad in Achtel und Wolkenuntergrenze
So, 03.03. 3:00 8(7200m)
So, 03.03. 2:40 8
So, 03.03. 2:30 7(3900m) 7(4500m) 8(7200m)
So, 03.03. 2:20 7(3900m) 7(4500m) 8(7200m)
So, 03.03. 2:10 8
So, 03.03. 2:00 8(6900m)
So, 03.03. 1:50 8(6900m)
So, 03.03. 1:30 1(5400m) 6(7800m) 7(8400m)
So, 03.03. 1:00 7(5700m) 8(6300m)
So, 03.03. 0:30 5(5700m) 8(6300m)
So, 03.03. 0:00 7(6900m) 8(8700m)
Ortszeit Luftdruck NN (hPa) Tendenz (hPa in 3 Std.)
So, 03.03. 1:00 1003 - 0,5
Sa, 02.03. 19:00 1002 - 0,1
Sa, 02.03. 13:00 1003 - 2,1
Sa, 02.03. 7:00 1008 + 0,5
Sa, 02.03. 1:00 1008 - 1,2
Fr, 01.03. 19:00 1009 - 0,1
Fr, 01.03. 13:00 1010 - 0,3
Fr, 01.03. 7:00 1009 + 1,4
Ortszeit Luftdruck NN (hPa) Tendenz (hPa in 3 Std.)
So, 03.03. 3:00 1002 - 1,1
So, 03.03. 2:40 1002 keine Meldung
So, 03.03. 2:30 1003 - 0,9
So, 03.03. 2:20 1003 keine Meldung
So, 03.03. 2:10 1003 keine Meldung
So, 03.03. 2:00 1003 - 0,6
So, 03.03. 1:50 1003 keine Meldung
So, 03.03. 1:30 1003 - 0,6
So, 03.03. 1:00 1003 - 0,5
So, 03.03. 0:30 1003 - 0,4
So, 03.03. 0:00 1003 - 0,6
Ortszeit Schneehöhe (cm)
So, 03.03. 1:00 0
Sa, 02.03. 19:00 0
Sa, 02.03. 13:00 0
Sa, 02.03. 7:00 0
Sa, 02.03. 1:00 0
Fr, 01.03. 19:00 0
Fr, 01.03. 13:00 0
Fr, 01.03. 7:00 0
Ortszeit Schneehöhe (cm)
So, 03.03. 3:00 0
So, 03.03. 2:40 -
So, 03.03. 2:30 0
So, 03.03. 2:20 0
So, 03.03. 2:10 -
So, 03.03. 2:00 0
So, 03.03. 1:50 0
So, 03.03. 1:30 0
So, 03.03. 1:00 0
So, 03.03. 0:30 0
So, 03.03. 0:00 0
Link zu dieser Seite / Seite empfehlen

Das Wetter in ...